createdAt,value
2019-03-30T00:01:01.161Z,3.84
2019-03-30T00:06:04.264Z,3.22
2019-03-30T00:11:07.360Z,3.84
2019-03-30T00:16:10.268Z,3.54
2019-03-30T00:21:13.255Z,3.61
2019-03-30T00:26:16.193Z,3.97
2019-03-30T00:31:19.061Z,3.51
2019-03-30T00:36:21.942Z,3.93
2019-03-30T00:41:25.205Z,3.57
2019-03-30T00:46:28.209Z,3.73
2019-03-30T00:51:31.094Z,3.83
2019-03-30T00:56:34.031Z,3.70
2019-03-30T01:01:36.827Z,3.70
2019-03-30T01:06:39.897Z,4.04
2019-03-30T01:11:42.873Z,3.81
2019-03-30T01:16:45.716Z,3.69
2019-03-30T01:21:48.630Z,4.12
2019-03-30T01:26:51.358Z,3.27
2019-03-30T01:31:54.337Z,3.85
2019-03-30T01:36:57.492Z,3.51
2019-03-30T01:42:00.441Z,3.57
2019-03-30T01:47:03.371Z,3.62
2019-03-30T01:52:06.331Z,3.58
2019-03-30T01:57:09.284Z,3.91
2019-03-30T02:02:12.244Z,3.70
2019-03-30T02:07:15.070Z,4.14
2019-03-30T02:12:18.160Z,3.78
2019-03-30T02:17:21.087Z,3.54
2019-03-30T02:22:23.928Z,3.76
2019-03-30T02:27:27.059Z,3.41
2019-03-30T02:32:29.873Z,3.44
2019-03-30T02:37:33.065Z,3.41
2019-03-30T02:42:36.095Z,3.21
2019-03-30T02:47:38.947Z,3.20
2019-03-30T02:52:41.911Z,3.12
2019-03-30T02:57:44.938Z,2.84
2019-03-30T03:02:47.893Z,2.91
2019-03-30T03:07:50.837Z,3.01
2019-03-30T03:12:53.746Z,2.55
2019-03-30T03:17:55.970Z,3.03
2019-03-30T03:22:58.845Z,2.61
2019-03-30T03:28:01.666Z,2.76
2019-03-30T03:33:04.321Z,2.57
2019-03-30T03:38:07.364Z,2.76
2019-03-30T03:43:10.178Z,2.65
2019-03-30T03:48:13.249Z,2.61
2019-03-30T03:53:14.483Z,2.65
2019-03-30T03:58:17.455Z,2.65
2019-03-30T04:03:20.416Z,2.51
2019-03-30T04:08:23.342Z,2.69
2019-03-30T04:13:25.993Z,2.74
2019-03-30T04:18:28.815Z,2.48
2019-03-30T04:23:31.694Z,2.59
2019-03-30T04:28:34.541Z,2.40
2019-03-30T04:33:37.592Z,2.39
2019-03-30T04:38:40.476Z,2.55
2019-03-30T04:43:43.234Z,2.31
2019-03-30T04:48:46.146Z,2.46
2019-03-30T04:53:49.005Z,2.60
2019-03-30T04:58:51.845Z,2.92
2019-03-30T05:03:54.713Z,2.65
2019-03-30T05:08:57.608Z,2.62
2019-03-30T05:14:00.398Z,2.65
2019-03-30T05:19:03.306Z,2.90
2019-03-30T05:24:06.440Z,2.62
2019-03-30T05:29:09.748Z,3.02
2019-03-30T05:34:12.750Z,2.75
2019-03-30T05:39:15.575Z,2.68
2019-03-30T05:44:18.381Z,2.70
2019-03-30T05:49:21.299Z,2.81
2019-03-30T05:54:24.354Z,2.50
2019-03-30T05:59:27.272Z,2.72
2019-03-30T06:04:30.220Z,2.49
2019-03-30T06:09:31.814Z,2.43
2019-03-30T06:14:33.700Z,2.50
2019-03-30T06:19:36.598Z,2.39
2019-03-30T06:24:38.423Z,2.17
2019-03-30T06:29:41.137Z,1.92
2019-03-30T06:34:42.957Z,1.97
2019-03-30T06:39:45.737Z,2.10
2019-03-30T06:44:49.431Z,2.09
2019-03-30T06:49:52.316Z,2.62
2019-03-30T06:54:55.438Z,2.09
2019-03-30T06:59:58.459Z,2.42
2019-03-30T07:05:01.301Z,2.21
2019-03-30T07:10:04.739Z,1.90
2019-03-30T07:15:10.211Z,2.49
2019-03-30T07:20:11.853Z,2.03
2019-03-30T07:25:13.626Z,2.06
2019-03-30T07:30:16.925Z,1.98
2019-03-30T07:35:20.257Z,1.89
2019-03-30T07:40:23.311Z,1.80
2019-03-30T07:45:24.916Z,1.94
2019-03-30T07:50:26.460Z,2.10
2019-03-30T07:55:28.232Z,1.85
2019-03-30T08:00:45.819Z,2.37
2019-03-30T08:05:38.920Z,2.25
2019-03-30T08:10:41.903Z,2.36
2019-03-30T08:15:45.029Z,2.26
2019-03-30T08:20:48.267Z,2.29
2019-03-30T08:25:51.372Z,2.30
2019-03-30T08:30:54.663Z,2.62
2019-03-30T08:35:57.676Z,2.44
2019-03-30T08:41:00.773Z,1.95
2019-03-30T08:46:03.560Z,1.99
2019-03-30T08:51:06.668Z,1.66
2019-03-30T08:56:09.667Z,1.85
2019-03-30T09:01:13.179Z,1.95
2019-03-30T09:07:47.420Z,1.72
2019-03-30T09:11:20.336Z,1.64
2019-03-30T09:16:23.282Z,1.62
2019-03-30T09:21:26.210Z,1.95
2019-03-30T09:26:29.239Z,1.94
2019-03-30T09:31:32.449Z,1.85
2019-03-30T09:36:35.516Z,1.56
2019-03-30T09:41:38.547Z,1.24
2019-03-30T09:46:41.874Z,1.19
2019-03-30T09:51:45.521Z,1.21
2019-03-30T09:56:48.661Z,1.00
2019-03-30T10:01:53.405Z,0.88
2019-03-30T10:06:56.064Z,1.19
2019-03-30T10:11:59.054Z,1.48
2019-03-30T10:17:01.366Z,1.24
2019-03-30T10:22:04.582Z,1.11
2019-03-30T10:27:08.130Z,1.04
2019-03-30T10:32:09.983Z,1.30
2019-03-30T10:37:11.777Z,1.13
2019-03-30T10:42:14.810Z,0.93
2019-03-30T10:47:18.498Z,1.56
2019-03-30T10:52:21.715Z,1.26
2019-03-30T10:57:24.686Z,1.29
2019-03-30T11:02:42.464Z,1.62
2019-03-30T11:07:35.481Z,1.58
2019-03-30T11:12:38.637Z,1.50
2019-03-30T11:17:41.709Z,1.41
2019-03-30T11:22:44.604Z,1.41
2019-03-30T11:27:47.515Z,1.35
2019-03-30T11:32:50.277Z,1.51
2019-03-30T11:37:53.214Z,1.38
2019-03-30T11:42:56.115Z,1.70
2019-03-30T11:47:58.972Z,1.72
2019-03-30T11:53:01.813Z,1.99
2019-03-30T11:58:04.890Z,2.38
2019-03-30T12:03:07.754Z,2.58
2019-03-30T12:08:10.738Z,2.90
2019-03-30T12:13:13.896Z,3.81
2019-03-30T12:18:17.070Z,3.71
2019-03-30T12:23:19.866Z,4.58
2019-03-30T12:28:22.952Z,4.27
2019-03-30T12:33:25.667Z,4.77
2019-03-30T12:38:28.295Z,5.43
2019-03-30T12:43:29.605Z,5.48
2019-03-30T12:48:31.149Z,5.92
2019-03-30T12:53:34.062Z,6.22
2019-03-30T12:58:36.902Z,6.46
2019-03-30T13:03:54.288Z,6.76
2019-03-30T13:08:47.045Z,7.26
2019-03-30T13:13:50.138Z,3.97
2019-03-30T13:18:53.050Z,5.97
2019-03-30T13:23:56.938Z,5.42
2019-03-30T13:29:00.218Z,2.02
2019-03-30T13:34:03.177Z,1.15
2019-03-30T13:39:06.127Z,1.13
2019-03-30T13:44:09.151Z,1.30
2019-03-30T13:49:10.693Z,1.18
2019-03-30T13:54:13.966Z,2.79
2019-03-30T13:59:16.847Z,1.92
2019-03-30T14:04:18.622Z,3.05
2019-03-30T14:09:22.133Z,1.00
2019-03-30T14:14:24.434Z,1.41
2019-03-30T14:19:27.175Z,2.97
2019-03-30T14:25:44.433Z,1.38
2019-03-30T14:30:47.754Z,0.91
2019-03-30T14:35:50.753Z,6.06
2019-03-30T14:40:53.829Z,4.18
2019-03-30T14:45:56.864Z,1.19
2019-03-30T14:50:59.653Z,1.77
2019-03-30T14:56:02.776Z,1.56
2019-03-30T15:01:05.819Z,1.00
2019-03-30T15:06:08.726Z,2.53
2019-03-30T15:11:11.496Z,3.28
2019-03-30T15:16:14.763Z,3.02
2019-03-30T15:21:17.474Z,3.47
2019-03-30T15:26:22.056Z,2.82
2019-03-30T15:31:22.994Z,2.70
2019-03-30T15:36:25.917Z,2.61
2019-03-30T15:41:29.201Z,2.41
2019-03-30T15:46:32.231Z,2.29
2019-03-30T15:51:37.535Z,2.02
2019-03-30T15:56:37.914Z,1.87
2019-03-30T16:01:40.660Z,1.48
2019-03-30T16:06:44.001Z,1.23
2019-03-30T16:11:46.807Z,1.41
2019-03-30T16:16:49.519Z,1.39
2019-03-30T16:21:52.238Z,0.94
2019-03-30T16:26:55.388Z,0.97
2019-03-30T16:31:58.332Z,1.01
2019-03-30T16:37:01.605Z,0.91
2019-03-30T16:42:04.696Z,0.73
2019-03-30T16:47:07.819Z,0.77
2019-03-30T16:52:10.702Z,0.73
2019-03-30T16:57:13.931Z,0.91
2019-03-30T17:02:17.144Z,0.95
2019-03-30T17:07:18.569Z,1.01
2019-03-30T17:12:21.725Z,0.99
2019-03-30T17:17:24.708Z,1.04
2019-03-30T17:22:27.688Z,0.89
2019-03-30T17:27:30.911Z,0.86
2019-03-30T17:32:34.014Z,0.91
2019-03-30T17:37:37.746Z,0.78
2019-03-30T17:42:40.849Z,0.87
2019-03-30T17:47:43.866Z,0.85
2019-03-30T17:52:46.566Z,0.80
2019-03-30T17:57:49.695Z,0.84
2019-03-30T18:02:52.913Z,1.23
2019-03-30T18:07:55.944Z,1.59
2019-03-30T18:12:57.931Z,1.75
2019-03-30T18:18:00.911Z,3.25
2019-03-30T18:23:03.931Z,1.64
2019-03-30T18:28:07.015Z,1.20
2019-03-30T18:33:10.063Z,1.34
2019-03-30T18:38:13.045Z,2.47
2019-03-30T18:43:14.142Z,1.07
2019-03-30T18:48:17.055Z,0.87
2019-03-30T18:53:19.893Z,0.84
2019-03-30T18:58:23.057Z,0.89
2019-03-30T19:03:26.530Z,0.69
2019-03-30T19:08:29.325Z,0.67
2019-03-30T19:13:32.299Z,0.85
2019-03-30T19:18:35.272Z,0.77
2019-03-30T19:23:38.492Z,0.75
2019-03-30T19:28:55.278Z,0.68
2019-03-30T19:33:44.020Z,0.71
2019-03-30T19:38:46.963Z,0.65
2019-03-30T19:43:50.103Z,0.66
2019-03-30T19:48:53.193Z,0.64
2019-03-30T19:53:59.711Z,0.62
2019-03-30T19:59:10.044Z,0.63
2019-03-30T20:03:59.799Z,0.60
2019-03-30T20:09:02.919Z,0.64
2019-03-30T20:14:05.660Z,0.69
2019-03-30T20:19:12.511Z,0.69
2019-03-30T20:24:11.746Z,0.67
2019-03-30T20:29:25.134Z,0.66
2019-03-30T20:34:17.295Z,0.80
2019-03-30T20:39:20.433Z,0.70
2019-03-30T20:44:23.549Z,0.60
2019-03-30T20:49:27.560Z,0.64
2019-03-30T20:54:30.562Z,0.79
2019-03-30T20:59:40.022Z,0.67
2019-03-30T21:04:39.285Z,0.73
2019-03-30T21:09:42.396Z,0.72
2019-03-30T21:15:58.444Z,0.76
2019-03-30T21:21:02.352Z,0.72
2019-03-30T21:26:05.550Z,0.77
2019-03-30T21:31:08.493Z,0.84
2019-03-30T21:36:11.315Z,0.83
2019-03-30T21:41:14.168Z,0.94
2019-03-30T21:46:17.198Z,0.87
2019-03-30T21:51:20.127Z,0.91
2019-03-30T21:56:23.232Z,1.62
2019-03-30T22:01:26.117Z,1.84
2019-03-30T22:06:29.297Z,0.74
2019-03-30T22:11:32.254Z,0.91
2019-03-30T22:16:35.033Z,1.08
2019-03-30T22:21:38.002Z,0.97
2019-03-30T22:26:41.031Z,0.93
2019-03-30T22:31:44.034Z,0.77
2019-03-30T22:36:46.916Z,1.00
2019-03-30T22:41:49.775Z,0.91
2019-03-30T22:46:52.948Z,0.87
2019-03-30T22:51:55.896Z,0.89
2019-03-30T22:56:58.932Z,0.76
2019-03-30T23:02:01.661Z,0.90
2019-03-30T23:07:04.681Z,0.94
2019-03-30T23:12:07.589Z,0.81
2019-03-30T23:17:10.706Z,0.97
2019-03-30T23:22:13.695Z,0.88
2019-03-30T23:27:16.614Z,0.83
2019-03-30T23:32:19.656Z,0.69
2019-03-30T23:37:22.657Z,0.83
2019-03-30T23:42:25.700Z,0.79
2019-03-30T23:47:28.563Z,0.75
2019-03-30T23:52:31.720Z,0.79
2019-03-30T23:57:34.572Z,0.74
